Terminal Aerodrome Forecast
Issued by NWS

Home | Current Version | Previous Version | Text Only | Print | Product List | Glossary On
Versions: 1 2 3 4 5 6 7 8 9 10 11 12 13 14
000
FTUS45 KPIH 292320
TAFSUN
TAF
KSUN 292320Z 3000/3024 14007KT P6SM -SHRA VCTS OVC040CB
     FM300300 31011KT P6SM VCSH BKN035 OVC070
     FM301800 11006KT P6SM VCSH SCT050 OVC100
      AMD LTD TO CLD VIS AND WIND 3006/3014=

USA.gov is the U.S. government's official web portal to all federal, state and local government web resources and services.